This is the latest recevied weather packets stored in our database for station/object KI5MKI. If no packets are shown the sender has not sent any weather packets the latest 10 day(s).
| Time | Temp. | Humidity | Pressure | Rain* | Wind** | Luminosity | Snow |
|---|---|---|---|---|---|---|---|
| 1777152789 | 28.89° C | 68% | 1006.5 hPa | 0 mm | - | 467 W/m² | - |
| 1777152486 | 28.33° C | 69% | 1006.5 hPa | 0 mm | - | 730 W/m² | - |
| 1777152182 | 28.33° C | 69% | 1006.5 hPa | 0 mm | - | 744 W/m² | - |
| 1777151877 | 28.33° C | 69% | 1006.8 hPa | 0 mm | - | 631 W/m² | - |
| 1777151573 | 28.33° C | 71% | 1006.7 hPa | 0 mm | - | 591 W/m² | - |
| 1777151270 | 27.78° C | 71% | 1007 hPa | 0 mm | - | 641 W/m² | - |
| 1777150965 | 27.78° C | 73% | 1006.8 hPa | 0 mm | - | 345 W/m² | - |
| 1777150660 | 28.33° C | 71% | 1007 hPa | 0 mm | - | 731 W/m² | - |
| 1777150356 | 27.78° C | 75% | 1006.8 hPa | 0 mm | - | 749 W/m² | - |
| 1777150053 | 27.78° C | 75% | 1007 hPa | 0 mm | - | 429 W/m² | - |
| 1777149749 | 27.22° C | 75% | 1006.9 hPa | 0 mm | - | 460 W/m² | - |
| 1777149446 | 27.78° C | 74% | 1007.1 hPa | 0 mm | - | 314 W/m² | - |
| 1777149142 | 27.22° C | 74% | 1007.2 hPa | 0 mm | - | 373 W/m² | - |
| 1777148841 | 27.22° C | 75% | 1007.2 hPa | 0 mm | - | 361 W/m² | - |
| 1777148539 | 27.78° C | 76% | 1007.2 hPa | 0 mm | - | 356 W/m² | - |
| 1777148234 | 27.22° C | 75% | 1007.4 hPa | 0 mm | - | 301 W/m² | - |
| 1777147931 | 28.33° C | 74% | 1007.2 hPa | 0 mm | - | 336 W/m² | - |
| 1777147627 | 28.33° C | 75% | 1007.3 hPa | 0 mm | - | 780 W/m² | - |
| 1777147322 | 27.78° C | 75% | 1007.2 hPa | 0 mm | - | 838 W/m² | - |
| 1777147019 | 27.78° C | 73% | 1007.5 hPa | 0 mm | - | 320 W/m² | - |
| 1777146715 | 28.33° C | 73% | 1007.4 hPa | 0 mm | - | 312 W/m² | - |
| 1777146415 | 28.33° C | 73% | 1007.3 hPa | 0 mm | - | 908 W/m² | - |
| 1777146113 | 28.33° C | 74% | 1007.2 hPa | 0 mm | - | 354 W/m² | - |
| 1777145813 | 28.89° C | 74% | 1007.3 hPa | 0 mm | - | 655 W/m² | - |
| 1777145509 | 28.33° C | 72% | 1007.5 hPa | 0 mm | - | 454 W/m² | - |
* Rain latest hour (hover to see other rain measurements)
** Current wind speed in m/s (hover to see current wind gust speed)